Kanawha Falls, West Virginia
Current Conditions -  °F | °C
As of 12:51 PM on Friday 21 Nov 2014 (Local Time) from KBKW Reporting Station
Clear Clear  
Wind Chill: 24°   Ceiling: Unl
Heat Index: 31°   Visibility: 10mi
Dew Point:   Wind: 7mph
Humidity: 35%   Direction: NA
Pressure: 30.38"   Gusts: NA
Location:  38.14°N, 81.21°W
Report Text: KBKW 211751Z AUTO VRB06KT 10SM CLR M01/M14 A3038 RMK AO2 SLP324 T10061144 10000 21078 50003
Loading
Personal Weather Stations






























Interactive Weather Map New forecast layout! Learn more

10-Day Weather Forecast

Advertisements
Track Severe Weather on mobile